sensor_id;sensor_type;location;lat;lon;timestamp;temperature;humidity
7472;DHT22;3777;48.722;8.110;2022-10-17T00:01:40;14.60;99.90
7472;DHT22;3777;48.722;8.110;2022-10-17T00:04:07;14.50;99.90
7472;DHT22;3777;48.722;8.110;2022-10-17T00:06:34;14.50;99.90
7472;DHT22;3777;48.722;8.110;2022-10-17T00:09:01;14.50;99.90
7472;DHT22;3777;48.722;8.110;2022-10-17T00:11:29;14.50;99.90
7472;DHT22;3777;48.722;8.110;2022-10-17T00:13:56;14.50;99.90
7472;DHT22;3777;48.722;8.110;2022-10-17T00:16:25;14.50;99.90
7472;DHT22;3777;48.722;8.110;2022-10-17T00:18:53;14.50;99.90
7472;DHT22;3777;48.722;8.110;2022-10-17T00:21:20;14.50;99.90
7472;DHT22;3777;48.722;8.110;2022-10-17T00:23:48;14.40;99.90
7472;DHT22;3777;48.722;8.110;2022-10-17T00:26:15;14.40;99.90
7472;DHT22;3777;48.722;8.110;2022-10-17T00:28:46;14.40;99.90
7472;DHT22;3777;48.722;8.110;2022-10-17T00:31:15;14.40;99.90
7472;DHT22;3777;48.722;8.110;2022-10-17T00:33:43;14.40;99.90
7472;DHT22;3777;48.722;8.110;2022-10-17T00:36:11;14.30;99.90
7472;DHT22;3777;48.722;8.110;2022-10-17T00:38:40;14.30;99.90
7472;DHT22;3777;48.722;8.110;2022-10-17T00:41:08;14.30;99.90
7472;DHT22;3777;48.722;8.110;2022-10-17T00:43:51;14.30;99.90
7472;DHT22;3777;48.722;8.110;2022-10-17T00:46:18;14.30;99.90
7472;DHT22;3777;48.722;8.110;2022-10-17T00:48:50;14.30;99.90
7472;DHT22;3777;48.722;8.110;2022-10-17T00:51:22;14.30;99.90
7472;DHT22;3777;48.722;8.110;2022-10-17T00:53:51;14.30;99.90
7472;DHT22;3777;48.722;8.110;2022-10-17T00:56:18;14.20;99.90
7472;DHT22;3777;48.722;8.110;2022-10-17T00:58:45;14.30;99.90
7472;DHT22;3777;48.722;8.110;2022-10-17T01:01:14;14.20;99.90
7472;DHT22;3777;48.722;8.110;2022-10-17T01:03:41;14.20;99.90
7472;DHT22;3777;48.722;8.110;2022-10-17T01:06:08;14.30;99.90
7472;DHT22;3777;48.722;8.110;2022-10-17T01:08:35;14.20;99.90
7472;DHT22;3777;48.722;8.110;2022-10-17T01:11:09;14.20;99.90
7472;DHT22;3777;48.722;8.110;2022-10-17T01:13:40;14.20;99.90
7472;DHT22;3777;48.722;8.110;2022-10-17T01:16:12;14.20;99.90
7472;DHT22;3777;48.722;8.110;2022-10-17T01:18:53;14.20;99.90
7472;DHT22;3777;48.722;8.110;2022-10-17T01:21:42;14.20;99.90
7472;DHT22;3777;48.722;8.110;2022-10-17T01:27:39;14.20;99.90
7472;DHT22;3777;48.722;8.110;2022-10-17T01:33:27;14.10;99.90
7472;DHT22;3777;48.722;8.110;2022-10-17T01:35:59;14.10;99.90
7472;DHT22;3777;48.722;8.110;2022-10-17T01:38:31;14.00;99.90
7472;DHT22;3777;48.722;8.110;2022-10-17T01:41:02;14.00;99.90
7472;DHT22;3777;48.722;8.110;2022-10-17T01:43:33;13.90;99.90
7472;DHT22;3777;48.722;8.110;2022-10-17T01:46:07;13.90;99.90
7472;DHT22;3777;48.722;8.110;2022-10-17T01:48:39;13.90;99.90
7472;DHT22;3777;48.722;8.110;2022-10-17T01:51:12;13.90;99.90
7472;DHT22;3777;48.722;8.110;2022-10-17T01:53:43;13.90;99.90
7472;DHT22;3777;48.722;8.110;2022-10-17T01:56:13;13.90;99.90
7472;DHT22;3777;48.722;8.110;2022-10-17T01:58:46;13.90;99.90
7472;DHT22;3777;48.722;8.110;2022-10-17T02:01:16;13.80;99.90
7472;DHT22;3777;48.722;8.110;2022-10-17T02:03:47;13.80;99.90
7472;DHT22;3777;48.722;8.110;2022-10-17T02:06:16;13.80;99.90
7472;DHT22;3777;48.722;8.110;2022-10-17T02:08:45;13.80;99.90
7472;DHT22;3777;48.722;8.110;2022-10-17T02:11:14;13.70;99.90
7472;DHT22;3777;48.722;8.110;2022-10-17T02:13:57;13.70;99.90
7472;DHT22;3777;48.722;8.110;2022-10-17T02:16:34;13.70;99.90
7472;DHT22;3777;48.722;8.110;2022-10-17T02:19:24;13.70;99.90
7472;DHT22;3777;48.722;8.110;2022-10-17T02:22:02;13.70;99.90
7472;DHT22;3777;48.722;8.110;2022-10-17T02:24:36;13.70;99.90
7472;DHT22;3777;48.722;8.110;2022-10-17T02:27:12;13.60;99.90
7472;DHT22;3777;48.722;8.110;2022-10-17T02:29:45;13.60;99.90
7472;DHT22;3777;48.722;8.110;2022-10-17T02:32:18;13.60;99.90
7472;DHT22;3777;48.722;8.110;2022-10-17T02:34:50;13.60;99.90
7472;DHT22;3777;48.722;8.110;2022-10-17T02:37:22;13.50;99.90
7472;DHT22;3777;48.722;8.110;2022-10-17T02:39:51;13.50;99.90
7472;DHT22;3777;48.722;8.110;2022-10-17T02:42:20;13.50;99.90
7472;DHT22;3777;48.722;8.110;2022-10-17T02:44:48;13.60;99.90
7472;DHT22;3777;48.722;8.110;2022-10-17T02:47:20;13.50;99.90
7472;DHT22;3777;48.722;8.110;2022-10-17T02:49:51;13.50;99.90
7472;DHT22;3777;48.722;8.110;2022-10-17T02:52:25;13.50;99.90
7472;DHT22;3777;48.722;8.110;2022-10-17T02:54:58;13.50;99.90
7472;DHT22;3777;48.722;8.110;2022-10-17T02:57:29;13.50;99.90
7472;DHT22;3777;48.722;8.110;2022-10-17T02:59:58;13.50;99.90
7472;DHT22;3777;48.722;8.110;2022-10-17T03:02:27;13.50;99.90
7472;DHT22;3777;48.722;8.110;2022-10-17T03:04:55;13.40;99.90
7472;DHT22;3777;48.722;8.110;2022-10-17T03:07:22;13.40;99.90
7472;DHT22;3777;48.722;8.110;2022-10-17T03:09:49;13.40;99.90
7472;DHT22;3777;48.722;8.110;2022-10-17T03:12:16;13.40;99.90
7472;DHT22;3777;48.722;8.110;2022-10-17T03:14:42;13.40;99.90
7472;DHT22;3777;48.722;8.110;2022-10-17T03:17:09;13.40;99.90
7472;DHT22;3777;48.722;8.110;2022-10-17T03:19:36;13.40;99.90
7472;DHT22;3777;48.722;8.110;2022-10-17T03:22:05;13.40;99.90
7472;DHT22;3777;48.722;8.110;2022-10-17T03:24:31;13.40;99.90
7472;DHT22;3777;48.722;8.110;2022-10-17T03:26:58;13.40;99.90
7472;DHT22;3777;48.722;8.110;2022-10-17T03:29:25;13.30;99.90
7472;DHT22;3777;48.722;8.110;2022-10-17T03:31:52;13.30;99.90
7472;DHT22;3777;48.722;8.110;2022-10-17T03:34:19;13.30;99.90
7472;DHT22;3777;48.722;8.110;2022-10-17T03:36:46;13.30;99.90
7472;DHT22;3777;48.722;8.110;2022-10-17T03:39:15;13.30;99.90
7472;DHT22;3777;48.722;8.110;2022-10-17T03:41:42;13.30;99.90
7472;DHT22;3777;48.722;8.110;2022-10-17T03:44:08;13.20;99.90
7472;DHT22;3777;48.722;8.110;2022-10-17T03:46:35;13.20;99.90
7472;DHT22;3777;48.722;8.110;2022-10-17T03:49:02;13.20;99.90
7472;DHT22;3777;48.722;8.110;2022-10-17T03:51:30;13.20;99.90
7472;DHT22;3777;48.722;8.110;2022-10-17T03:53:58;13.20;99.90
7472;DHT22;3777;48.722;8.110;2022-10-17T03:56:26;13.20;99.90
7472;DHT22;3777;48.722;8.110;2022-10-17T03:58:53;13.20;99.90
7472;DHT22;3777;48.722;8.110;2022-10-17T04:01:21;13.20;99.90
7472;DHT22;3777;48.722;8.110;2022-10-17T04:03:49;13.20;99.90
7472;DHT22;3777;48.722;8.110;2022-10-17T04:06:16;13.20;99.90
7472;DHT22;3777;48.722;8.110;2022-10-17T04:08:43;13.20;99.90
7472;DHT22;3777;48.722;8.110;2022-10-17T04:11:13;13.20;99.90
7472;DHT22;3777;48.722;8.110;2022-10-17T04:13:42;13.20;99.90
7472;DHT22;3777;48.722;8.110;2022-10-17T04:16:11;13.20;99.90
7472;DHT22;3777;48.722;8.110;2022-10-17T04:18:38;13.20;99.90
7472;DHT22;3777;48.722;8.110;2022-10-17T04:21:06;13.30;99.90
7472;DHT22;3777;48.722;8.110;2022-10-17T04:23:33;13.20;99.90
7472;DHT22;3777;48.722;8.110;2022-10-17T04:26:01;13.20;99.90
7472;DHT22;3777;48.722;8.110;2022-10-17T04:28:29;13.20;99.90
7472;DHT22;3777;48.722;8.110;2022-10-17T04:30:58;13.20;99.90
7472;DHT22;3777;48.722;8.110;2022-10-17T04:33:26;13.20;99.90
7472;DHT22;3777;48.722;8.110;2022-10-17T04:35:57;13.20;99.90
7472;DHT22;3777;48.722;8.110;2022-10-17T04:38:24;13.20;99.90
7472;DHT22;3777;48.722;8.110;2022-10-17T04:40:51;13.20;99.90
7472;DHT22;3777;48.722;8.110;2022-10-17T04:43:18;13.20;99.90
7472;DHT22;3777;48.722;8.110;2022-10-17T04:45:45;13.20;99.90
7472;DHT22;3777;48.722;8.110;2022-10-17T04:48:13;13.20;99.90
7472;DHT22;3777;48.722;8.110;2022-10-17T04:50:40;13.20;99.90
7472;DHT22;3777;48.722;8.110;2022-10-17T04:53:07;13.10;99.90
7472;DHT22;3777;48.722;8.110;2022-10-17T04:55:36;13.20;99.90
7472;DHT22;3777;48.722;8.110;2022-10-17T04:58:04;13.10;99.90
7472;DHT22;3777;48.722;8.110;2022-10-17T05:00:31;13.10;99.90
7472;DHT22;3777;48.722;8.110;2022-10-17T05:02:58;13.10;99.90
7472;DHT22;3777;48.722;8.110;2022-10-17T05:05:26;13.00;99.90
7472;DHT22;3777;48.722;8.110;2022-10-17T05:07:53;13.00;99.90
7472;DHT22;3777;48.722;8.110;2022-10-17T05:10:20;13.00;99.90
7472;DHT22;3777;48.722;8.110;2022-10-17T05:12:47;12.90;99.90
7472;DHT22;3777;48.722;8.110;2022-10-17T05:15:14;12.90;99.90
7472;DHT22;3777;48.722;8.110;2022-10-17T05:17:41;12.90;99.90
7472;DHT22;3777;48.722;8.110;2022-10-17T05:20:09;12.90;99.90
7472;DHT22;3777;48.722;8.110;2022-10-17T05:22:37;12.80;99.90
7472;DHT22;3777;48.722;8.110;2022-10-17T05:25:06;12.80;99.90
7472;DHT22;3777;48.722;8.110;2022-10-17T05:27:33;12.80;99.90
7472;DHT22;3777;48.722;8.110;2022-10-17T05:30:00;12.80;99.90
7472;DHT22;3777;48.722;8.110;2022-10-17T05:32:27;12.80;99.90
7472;DHT22;3777;48.722;8.110;2022-10-17T05:34:54;12.80;99.90
7472;DHT22;3777;48.722;8.110;2022-10-17T05:37:21;12.80;99.90
7472;DHT22;3777;48.722;8.110;2022-10-17T05:39:49;12.80;99.90
7472;DHT22;3777;48.722;8.110;2022-10-17T05:42:16;12.80;99.90
7472;DHT22;3777;48.722;8.110;2022-10-17T05:44:43;12.80;99.90
7472;DHT22;3777;48.722;8.110;2022-10-17T05:47:10;12.80;99.90
7472;DHT22;3777;48.722;8.110;2022-10-17T05:49:36;12.80;99.90
7472;DHT22;3777;48.722;8.110;2022-10-17T05:52:03;12.80;99.90
7472;DHT22;3777;48.722;8.110;2022-10-17T05:54:30;12.80;99.90
7472;DHT22;3777;48.722;8.110;2022-10-17T05:56:59;12.70;99.90
7472;DHT22;3777;48.722;8.110;2022-10-17T05:59:26;12.80;99.90
7472;DHT22;3777;48.722;8.110;2022-10-17T06:01:53;12.80;99.90
7472;DHT22;3777;48.722;8.110;2022-10-17T06:04:20;12.80;99.90
7472;DHT22;3777;48.722;8.110;2022-10-17T06:06:47;12.80;99.90
7472;DHT22;3777;48.722;8.110;2022-10-17T06:09:14;12.80;99.90
7472;DHT22;3777;48.722;8.110;2022-10-17T06:11:41;12.90;99.90
7472;DHT22;3777;48.722;8.110;2022-10-17T06:14:10;12.90;99.90
7472;DHT22;3777;48.722;8.110;2022-10-17T06:16:37;12.90;99.90
7472;DHT22;3777;48.722;8.110;2022-10-17T06:19:04;12.90;99.90
7472;DHT22;3777;48.722;8.110;2022-10-17T06:21:30;13.00;99.90
7472;DHT22;3777;48.722;8.110;2022-10-17T06:24:01;13.00;99.90
7472;DHT22;3777;48.722;8.110;2022-10-17T06:26:28;13.00;99.90
7472;DHT22;3777;48.722;8.110;2022-10-17T06:28:55;13.10;99.90
7472;DHT22;3777;48.722;8.110;2022-10-17T06:31:23;13.10;99.90
7472;DHT22;3777;48.722;8.110;2022-10-17T06:33:50;13.20;99.90
7472;DHT22;3777;48.722;8.110;2022-10-17T06:36:17;13.20;99.90
7472;DHT22;3777;48.722;8.110;2022-10-17T06:38:44;13.30;99.90
7472;DHT22;3777;48.722;8.110;2022-10-17T06:41:13;13.40;99.90
7472;DHT22;3777;48.722;8.110;2022-10-17T06:43:41;13.50;99.90
7472;DHT22;3777;48.722;8.110;2022-10-17T06:46:11;13.50;99.90
7472;DHT22;3777;48.722;8.110;2022-10-17T06:48:39;13.60;99.90
7472;DHT22;3777;48.722;8.110;2022-10-17T06:51:06;13.70;99.90
7472;DHT22;3777;48.722;8.110;2022-10-17T06:53:37;13.80;99.90
7472;DHT22;3777;48.722;8.110;2022-10-17T06:56:05;13.90;99.90
7472;DHT22;3777;48.722;8.110;2022-10-17T06:58:33;14.00;99.90
7472;DHT22;3777;48.722;8.110;2022-10-17T07:01:03;14.00;99.90
7472;DHT22;3777;48.722;8.110;2022-10-17T07:03:30;14.10;99.90
7472;DHT22;3777;48.722;8.110;2022-10-17T07:05:59;14.20;99.90
7472;DHT22;3777;48.722;8.110;2022-10-17T07:08:26;14.30;99.90
7472;DHT22;3777;48.722;8.110;2022-10-17T07:10:54;14.40;99.90
7472;DHT22;3777;48.722;8.110;2022-10-17T07:13:21;14.50;99.90
7472;DHT22;3777;48.722;8.110;2022-10-17T07:15:48;14.50;99.90
7472;DHT22;3777;48.722;8.110;2022-10-17T07:18:15;14.60;99.90
7472;DHT22;3777;48.722;8.110;2022-10-17T07:20:42;14.70;99.90
7472;DHT22;3777;48.722;8.110;2022-10-17T07:23:10;14.70;99.90
7472;DHT22;3777;48.722;8.110;2022-10-17T07:25:37;14.80;99.90
7472;DHT22;3777;48.722;8.110;2022-10-17T07:28:04;14.90;99.90
7472;DHT22;3777;48.722;8.110;2022-10-17T07:30:32;14.90;99.90
7472;DHT22;3777;48.722;8.110;2022-10-17T07:32:59;15.10;99.90
7472;DHT22;3777;48.722;8.110;2022-10-17T07:35:26;15.20;99.90
7472;DHT22;3777;48.722;8.110;2022-10-17T07:37:53;15.30;99.90
7472;DHT22;3777;48.722;8.110;2022-10-17T07:40:21;15.40;99.90
7472;DHT22;3777;48.722;8.110;2022-10-17T07:42:48;15.50;99.90
7472;DHT22;3777;48.722;8.110;2022-10-17T07:45:15;15.40;99.90
7472;DHT22;3777;48.722;8.110;2022-10-17T07:47:42;15.40;99.90
7472;DHT22;3777;48.722;8.110;2022-10-17T07:50:09;15.50;99.90
7472;DHT22;3777;48.722;8.110;2022-10-17T07:52:36;15.70;99.90
7472;DHT22;3777;48.722;8.110;2022-10-17T07:55:03;15.90;99.90
7472;DHT22;3777;48.722;8.110;2022-10-17T07:57:32;16.00;99.90
7472;DHT22;3777;48.722;8.110;2022-10-17T07:59:59;16.20;99.90
7472;DHT22;3777;48.722;8.110;2022-10-17T08:02:26;16.30;99.90
7472;DHT22;3777;48.722;8.110;2022-10-17T08:04:53;16.40;99.90
7472;DHT22;3777;48.722;8.110;2022-10-17T08:07:20;16.50;99.90
7472;DHT22;3777;48.722;8.110;2022-10-17T08:09:47;16.70;99.90
7472;DHT22;3777;48.722;8.110;2022-10-17T08:12:15;16.80;99.90
7472;DHT22;3777;48.722;8.110;2022-10-17T08:14:43;16.90;99.90
7472;DHT22;3777;48.722;8.110;2022-10-17T08:17:10;17.10;99.90
7472;DHT22;3777;48.722;8.110;2022-10-17T08:19:38;17.20;99.90
7472;DHT22;3777;48.722;8.110;2022-10-17T08:22:05;17.30;99.90
7472;DHT22;3777;48.722;8.110;2022-10-17T08:24:32;17.40;99.90
7472;DHT22;3777;48.722;8.110;2022-10-17T08:26:59;17.50;99.90
7472;DHT22;3777;48.722;8.110;2022-10-17T08:29:26;17.70;99.90
7472;DHT22;3777;48.722;8.110;2022-10-17T08:31:55;17.80;99.90
7472;DHT22;3777;48.722;8.110;2022-10-17T08:34:22;18.00;99.90
7472;DHT22;3777;48.722;8.110;2022-10-17T08:36:48;18.20;99.90
7472;DHT22;3777;48.722;8.110;2022-10-17T08:39:16;18.30;99.90
7472;DHT22;3777;48.722;8.110;2022-10-17T08:41:52;18.50;99.90
7472;DHT22;3777;48.722;8.110;2022-10-17T08:44:34;18.70;99.90
7472;DHT22;3777;48.722;8.110;2022-10-17T08:47:08;18.80;99.90
7472;DHT22;3777;48.722;8.110;2022-10-17T08:49:41;18.80;99.90
7472;DHT22;3777;48.722;8.110;2022-10-17T08:52:17;19.10;99.90
7472;DHT22;3777;48.722;8.110;2022-10-17T08:54:46;19.30;99.90
7472;DHT22;3777;48.722;8.110;2022-10-17T08:57:16;19.70;99.90
7472;DHT22;3777;48.722;8.110;2022-10-17T08:59:44;19.70;99.90
7472;DHT22;3777;48.722;8.110;2022-10-17T09:02:33;20.00;99.90
7472;DHT22;3777;48.722;8.110;2022-10-17T09:05:22;20.20;99.90
7472;DHT22;3777;48.722;8.110;2022-10-17T09:07:57;20.30;99.90
7472;DHT22;3777;48.722;8.110;2022-10-17T09:10:31;20.30;99.90
7472;DHT22;3777;48.722;8.110;2022-10-17T09:13:09;20.40;99.90
7472;DHT22;3777;48.722;8.110;2022-10-17T09:15:49;20.60;99.90
7472;DHT22;3777;48.722;8.110;2022-10-17T09:18:25;20.60;99.90
7472;DHT22;3777;48.722;8.110;2022-10-17T09:20:55;20.50;99.90
7472;DHT22;3777;48.722;8.110;2022-10-17T09:23:25;20.50;99.90
7472;DHT22;3777;48.722;8.110;2022-10-17T09:25:56;20.70;99.90
7472;DHT22;3777;48.722;8.110;2022-10-17T09:28:28;20.90;99.90
7472;DHT22;3777;48.722;8.110;2022-10-17T09:31:00;21.30;99.90
7472;DHT22;3777;48.722;8.110;2022-10-17T09:33:33;21.50;99.90
7472;DHT22;3777;48.722;8.110;2022-10-17T09:36:03;21.50;99.90
7472;DHT22;3777;48.722;8.110;2022-10-17T09:38:37;21.80;99.90
7472;DHT22;3777;48.722;8.110;2022-10-17T09:41:14;21.90;99.90
7472;DHT22;3777;48.722;8.110;2022-10-17T09:43:42;21.80;99.90
7472;DHT22;3777;48.722;8.110;2022-10-17T09:46:16;21.90;99.90
7472;DHT22;3777;48.722;8.110;2022-10-17T09:48:50;21.70;99.90
7472;DHT22;3777;48.722;8.110;2022-10-17T09:51:19;21.70;99.90
7472;DHT22;3777;48.722;8.110;2022-10-17T09:53:50;22.00;99.90
7472;DHT22;3777;48.722;8.110;2022-10-17T09:56:18;22.30;99.90
7472;DHT22;3777;48.722;8.110;2022-10-17T09:58:47;22.50;99.90
7472;DHT22;3777;48.722;8.110;2022-10-17T10:01:17;23.00;99.90
7472;DHT22;3777;48.722;8.110;2022-10-17T10:03:46;23.00;99.90
7472;DHT22;3777;48.722;8.110;2022-10-17T10:06:15;22.80;99.90
7472;DHT22;3777;48.722;8.110;2022-10-17T10:08:50;22.80;99.90
7472;DHT22;3777;48.722;8.110;2022-10-17T10:11:18;22.90;99.90
7472;DHT22;3777;48.722;8.110;2022-10-17T10:13:48;22.70;99.90
7472;DHT22;3777;48.722;8.110;2022-10-17T10:16:19;22.70;99.90
7472;DHT22;3777;48.722;8.110;2022-10-17T10:18:49;23.30;99.90
7472;DHT22;3777;48.722;8.110;2022-10-17T10:21:17;24.10;99.90
7472;DHT22;3777;48.722;8.110;2022-10-17T10:24:02;24.50;99.90
7472;DHT22;3777;48.722;8.110;2022-10-17T10:26:33;25.50;99.90
7472;DHT22;3777;48.722;8.110;2022-10-17T10:29:04;26.60;99.90
7472;DHT22;3777;48.722;8.110;2022-10-17T10:31:33;26.70;99.90
7472;DHT22;3777;48.722;8.110;2022-10-17T10:34:17;27.30;99.90
7472;DHT22;3777;48.722;8.110;2022-10-17T10:36:55;27.50;99.90
7472;DHT22;3777;48.722;8.110;2022-10-17T10:39:36;28.80;99.90
7472;DHT22;3777;48.722;8.110;2022-10-17T10:42:15;29.60;99.90
7472;DHT22;3777;48.722;8.110;2022-10-17T10:44:43;30.10;99.90
7472;DHT22;3777;48.722;8.110;2022-10-17T10:47:19;30.80;99.90
7472;DHT22;3777;48.722;8.110;2022-10-17T10:49:50;31.80;99.90
7472;DHT22;3777;48.722;8.110;2022-10-17T10:52:28;32.60;99.90
7472;DHT22;3777;48.722;8.110;2022-10-17T10:55:03;33.00;99.90
7472;DHT22;3777;48.722;8.110;2022-10-17T10:57:32;32.60;98.80
7472;DHT22;3777;48.722;8.110;2022-10-17T11:00:05;32.70;98.80
7472;DHT22;3777;48.722;8.110;2022-10-17T11:02:41;32.70;99.90
7472;DHT22;3777;48.722;8.110;2022-10-17T11:05:16;32.70;98.60
7472;DHT22;3777;48.722;8.110;2022-10-17T11:07:50;33.20;99.90
7472;DHT22;3777;48.722;8.110;2022-10-17T11:10:24;33.30;97.30
7472;DHT22;3777;48.722;8.110;2022-10-17T11:15:43;33.10;95.40
7472;DHT22;3777;48.722;8.110;2022-10-17T11:18:18;32.50;96.50
7472;DHT22;3777;48.722;8.110;2022-10-17T11:20:52;31.50;98.30
7472;DHT22;3777;48.722;8.110;2022-10-17T11:23:23;30.70;99.90
7472;DHT22;3777;48.722;8.110;2022-10-17T11:25:55;30.00;99.90
7472;DHT22;3777;48.722;8.110;2022-10-17T11:28:24;29.30;99.90
7472;DHT22;3777;48.722;8.110;2022-10-17T11:30:58;28.70;99.90
7472;DHT22;3777;48.722;8.110;2022-10-17T11:33:28;28.20;99.90
7472;DHT22;3777;48.722;8.110;2022-10-17T11:36:02;27.80;99.90
7472;DHT22;3777;48.722;8.110;2022-10-17T11:38:40;27.40;99.90
7472;DHT22;3777;48.722;8.110;2022-10-17T11:41:11;27.10;99.90
7472;DHT22;3777;48.722;8.110;2022-10-17T11:43:43;26.90;99.90
7472;DHT22;3777;48.722;8.110;2022-10-17T11:46:14;26.60;99.90
7472;DHT22;3777;48.722;8.110;2022-10-17T11:48:44;26.50;99.90
7472;DHT22;3777;48.722;8.110;2022-10-17T11:51:17;26.30;99.90
7472;DHT22;3777;48.722;8.110;2022-10-17T11:53:47;26.20;99.90
7472;DHT22;3777;48.722;8.110;2022-10-17T11:56:19;26.20;99.90
7472;DHT22;3777;48.722;8.110;2022-10-17T11:58:53;26.20;99.90
7472;DHT22;3777;48.722;8.110;2022-10-17T12:01:31;26.10;99.90
7472;DHT22;3777;48.722;8.110;2022-10-17T12:04:11;26.00;99.90
7472;DHT22;3777;48.722;8.110;2022-10-17T12:06:53;26.00;99.90
7472;DHT22;3777;48.722;8.110;2022-10-17T12:09:28;25.90;99.90
7472;DHT22;3777;48.722;8.110;2022-10-17T12:11:58;26.00;99.90
7472;DHT22;3777;48.722;8.110;2022-10-17T12:14:43;26.00;99.90
7472;DHT22;3777;48.722;8.110;2022-10-17T12:17:31;25.90;99.90
7472;DHT22;3777;48.722;8.110;2022-10-17T12:20:25;25.80;99.90
7472;DHT22;3777;48.722;8.110;2022-10-17T12:22:56;25.80;99.90
7472;DHT22;3777;48.722;8.110;2022-10-17T12:25:26;25.80;99.90
7472;DHT22;3777;48.722;8.110;2022-10-17T12:28:26;25.80;99.90
7472;DHT22;3777;48.722;8.110;2022-10-17T12:30:57;25.80;99.90
7472;DHT22;3777;48.722;8.110;2022-10-17T12:33:31;25.80;99.90
7472;DHT22;3777;48.722;8.110;2022-10-17T12:42:31;25.60;99.90
7472;DHT22;3777;48.722;8.110;2022-10-17T12:44:58;25.60;99.90
7472;DHT22;3777;48.722;8.110;2022-10-17T12:47:37;25.50;99.90
7472;DHT22;3777;48.722;8.110;2022-10-17T12:50:59;25.40;99.90
7472;DHT22;3777;48.722;8.110;2022-10-17T12:53:34;25.40;99.90
7472;DHT22;3777;48.722;8.110;2022-10-17T12:56:03;25.30;99.90
7472;DHT22;3777;48.722;8.110;2022-10-17T12:58:33;25.20;99.90
7472;DHT22;3777;48.722;8.110;2022-10-17T13:01:01;25.30;99.90
7472;DHT22;3777;48.722;8.110;2022-10-17T13:03:31;25.30;99.90
7472;DHT22;3777;48.722;8.110;2022-10-17T13:06:01;25.20;99.90
7472;DHT22;3777;48.722;8.110;2022-10-17T13:08:31;25.10;99.90
7472;DHT22;3777;48.722;8.110;2022-10-17T13:10:59;25.00;99.90
7472;DHT22;3777;48.722;8.110;2022-10-17T13:13:36;25.00;99.90
7472;DHT22;3777;48.722;8.110;2022-10-17T13:16:05;24.90;99.90
7472;DHT22;3777;48.722;8.110;2022-10-17T13:18:32;25.00;99.90
7472;DHT22;3777;48.722;8.110;2022-10-17T13:21:01;25.00;99.90
7472;DHT22;3777;48.722;8.110;2022-10-17T13:23:31;25.10;99.90
7472;DHT22;3777;48.722;8.110;2022-10-17T13:26:19;25.10;99.90
7472;DHT22;3777;48.722;8.110;2022-10-17T13:29:00;25.00;99.90
7472;DHT22;3777;48.722;8.110;2022-10-17T13:31:29;25.00;99.90
7472;DHT22;3777;48.722;8.110;2022-10-17T13:33:58;25.00;99.90
7472;DHT22;3777;48.722;8.110;2022-10-17T13:36:26;25.10;99.90
7472;DHT22;3777;48.722;8.110;2022-10-17T13:38:54;25.00;99.90
7472;DHT22;3777;48.722;8.110;2022-10-17T13:41:26;25.10;99.90
7472;DHT22;3777;48.722;8.110;2022-10-17T13:43:56;25.00;99.90
7472;DHT22;3777;48.722;8.110;2022-10-17T13:46:28;25.00;99.90
7472;DHT22;3777;48.722;8.110;2022-10-17T13:48:57;25.00;99.90
7472;DHT22;3777;48.722;8.110;2022-10-17T13:51:25;25.00;99.90
7472;DHT22;3777;48.722;8.110;2022-10-17T13:53:53;25.00;99.90
7472;DHT22;3777;48.722;8.110;2022-10-17T13:56:21;25.00;99.90
7472;DHT22;3777;48.722;8.110;2022-10-17T13:58:50;25.00;99.90
7472;DHT22;3777;48.722;8.110;2022-10-17T14:01:20;25.00;99.90
7472;DHT22;3777;48.722;8.110;2022-10-17T14:03:47;24.90;99.90
7472;DHT22;3777;48.722;8.110;2022-10-17T14:06:19;24.90;99.90
7472;DHT22;3777;48.722;8.110;2022-10-17T14:08:53;25.00;99.90
7472;DHT22;3777;48.722;8.110;2022-10-17T14:11:25;25.00;99.90
7472;DHT22;3777;48.722;8.110;2022-10-17T14:13:53;24.90;99.90
7472;DHT22;3777;48.722;8.110;2022-10-17T14:16:24;24.90;99.90
7472;DHT22;3777;48.722;8.110;2022-10-17T14:18:52;24.80;99.90
7472;DHT22;3777;48.722;8.110;2022-10-17T14:21:22;24.80;99.90
7472;DHT22;3777;48.722;8.110;2022-10-17T14:23:50;24.80;99.90
7472;DHT22;3777;48.722;8.110;2022-10-17T14:26:19;24.80;99.90
7472;DHT22;3777;48.722;8.110;2022-10-17T14:28:48;24.70;99.90
7472;DHT22;3777;48.722;8.110;2022-10-17T14:31:29;24.70;99.90
7472;DHT22;3777;48.722;8.110;2022-10-17T14:33:57;24.60;99.90
7472;DHT22;3777;48.722;8.110;2022-10-17T14:36:34;24.50;99.90
7472;DHT22;3777;48.722;8.110;2022-10-17T14:39:04;24.50;99.90
7472;DHT22;3777;48.722;8.110;2022-10-17T14:41:33;24.40;99.90
7472;DHT22;3777;48.722;8.110;2022-10-17T14:44:04;24.40;99.90
7472;DHT22;3777;48.722;8.110;2022-10-17T14:46:35;24.40;99.90
7472;DHT22;3777;48.722;8.110;2022-10-17T14:49:04;24.30;99.90
7472;DHT22;3777;48.722;8.110;2022-10-17T14:51:32;24.30;99.90
7472;DHT22;3777;48.722;8.110;2022-10-17T14:54:15;24.30;99.90
7472;DHT22;3777;48.722;8.110;2022-10-17T14:56:48;24.30;99.90
7472;DHT22;3777;48.722;8.110;2022-10-17T14:59:15;24.30;99.90
7472;DHT22;3777;48.722;8.110;2022-10-17T15:01:48;24.20;99.90
7472;DHT22;3777;48.722;8.110;2022-10-17T15:04:15;24.20;99.90
7472;DHT22;3777;48.722;8.110;2022-10-17T15:06:43;24.20;99.90
7472;DHT22;3777;48.722;8.110;2022-10-17T15:09:11;24.20;99.90
7472;DHT22;3777;48.722;8.110;2022-10-17T15:11:38;24.20;99.90
7472;DHT22;3777;48.722;8.110;2022-10-17T15:14:05;24.10;99.90
7472;DHT22;3777;48.722;8.110;2022-10-17T15:16:33;24.00;99.90
7472;DHT22;3777;48.722;8.110;2022-10-17T15:19:03;24.00;99.90
7472;DHT22;3777;48.722;8.110;2022-10-17T15:21:30;23.90;99.90
7472;DHT22;3777;48.722;8.110;2022-10-17T15:23:56;23.90;99.90
7472;DHT22;3777;48.722;8.110;2022-10-17T15:26:29;23.90;99.90
7472;DHT22;3777;48.722;8.110;2022-10-17T15:28:57;23.90;99.90
7472;DHT22;3777;48.722;8.110;2022-10-17T15:31:25;23.80;99.90
7472;DHT22;3777;48.722;8.110;2022-10-17T15:33:52;23.70;99.90
7472;DHT22;3777;48.722;8.110;2022-10-17T15:36:25;23.60;99.90
7472;DHT22;3777;48.722;8.110;2022-10-17T15:38:55;23.40;99.90
7472;DHT22;3777;48.722;8.110;2022-10-17T15:41:24;23.30;99.90
7472;DHT22;3777;48.722;8.110;2022-10-17T15:43:51;23.20;99.90
7472;DHT22;3777;48.722;8.110;2022-10-17T15:46:20;23.10;99.90
7472;DHT22;3777;48.722;8.110;2022-10-17T15:48:48;23.00;99.90
7472;DHT22;3777;48.722;8.110;2022-10-17T15:51:16;22.90;99.90
7472;DHT22;3777;48.722;8.110;2022-10-17T15:53:44;22.80;99.90
7472;DHT22;3777;48.722;8.110;2022-10-17T15:56:19;22.70;99.90
7472;DHT22;3777;48.722;8.110;2022-10-17T15:58:47;22.60;99.90
7472;DHT22;3777;48.722;8.110;2022-10-17T16:01:19;22.50;99.90
7472;DHT22;3777;48.722;8.110;2022-10-17T16:03:47;22.40;99.90
7472;DHT22;3777;48.722;8.110;2022-10-17T16:06:15;22.30;99.90
7472;DHT22;3777;48.722;8.110;2022-10-17T16:08:44;22.20;99.90
7472;DHT22;3777;48.722;8.110;2022-10-17T16:11:16;22.10;99.90
7472;DHT22;3777;48.722;8.110;2022-10-17T16:13:49;22.10;99.90
7472;DHT22;3777;48.722;8.110;2022-10-17T16:16:16;22.00;99.90
7472;DHT22;3777;48.722;8.110;2022-10-17T16:18:44;21.90;99.90
7472;DHT22;3777;48.722;8.110;2022-10-17T16:21:12;21.80;99.90
7472;DHT22;3777;48.722;8.110;2022-10-17T16:23:40;21.70;99.90
7472;DHT22;3777;48.722;8.110;2022-10-17T16:26:08;21.70;99.90
7472;DHT22;3777;48.722;8.110;2022-10-17T16:28:38;21.70;99.90
7472;DHT22;3777;48.722;8.110;2022-10-17T16:31:14;21.70;99.90
7472;DHT22;3777;48.722;8.110;2022-10-17T16:33:43;21.70;99.90
7472;DHT22;3777;48.722;8.110;2022-10-17T16:36:10;21.70;99.90
7472;DHT22;3777;48.722;8.110;2022-10-17T16:38:37;21.70;99.90